Time;durP1;ratioP1;P1;durP2;ratioP2;P2;SDS_P1;SDS_P2;PMS_P1;PMS_P2;Temp;Humidity;BMP_temperature;BMP_pressure;BME280_temperature;BME280_humidity;BME280_pressure;Samples;Min_cycle;Max_cycle;Signal;HPM_P1;HPM_P2
2021/08/23 00:01:31;;;;;;;13.43;12.20;;;18.30;99.90;;;;;;4992241;28;20617;-73
2021/08/23 00:03:58;;;;;;;13.40;12.00;;;18.20;99.90;;;;;;4998657;28;20491;-74
2021/08/23 00:06:25;;;;;;;13.27;12.00;;;18.10;99.90;;;;;;4998954;28;20494;-69
2021/08/23 00:08:52;;;;;;;12.33;11.23;;;18.00;99.90;;;;;;4998078;28;20643;-72
2021/08/23 00:11:19;;;;;;;13.93;11.47;;;18.00;99.90;;;;;;4998218;28;20493;-70
2021/08/23 00:13:46;;;;;;;13.20;11.90;;;18.20;99.90;;;;;;4983621;28;20802;-72
2021/08/23 00:16:13;;;;;;;10.60;9.60;;;18.30;99.90;;;;;;4992355;28;20446;-72
2021/08/23 00:18:40;;;;;;;11.80;10.63;;;18.40;99.90;;;;;;4995043;28;20498;-70
2021/08/23 00:21:12;;;;;;;11.20;10.23;;;18.30;99.90;;;;;;4991146;28;20456;-72
2021/08/23 00:23:49;;;;;;;11.67;10.70;;;18.30;99.90;;;;;;4995782;28;20418;-72
2021/08/23 00:26:21;;;;;;;11.23;10.13;;;18.30;99.90;;;;;;4991653;28;20417;-72
2021/08/23 00:28:48;;;;;;;12.80;11.67;;;18.40;99.90;;;;;;4998477;28;20438;-73
2021/08/23 00:31:15;;;;;;;11.07;9.80;;;18.40;99.90;;;;;;4999369;28;20729;-73
2021/08/23 00:33:42;;;;;;;13.53;10.43;;;18.40;99.90;;;;;;4987947;28;20458;-72
2021/08/23 00:36:09;;;;;;;12.00;10.20;;;18.50;99.90;;;;;;5004170;28;20421;-73
2021/08/23 00:38:36;;;;;;;10.80;9.80;;;18.50;99.90;;;;;;5010487;28;20773;-73
2021/08/23 00:41:03;;;;;;;13.20;11.97;;;18.40;99.90;;;;;;4987509;28;20846;-73
2021/08/23 00:43:31;;;;;;;14.83;11.00;;;18.40;99.90;;;;;;5000758;28;20497;-73
2021/08/23 00:46:05;;;;;;;11.13;10.03;;;18.40;99.90;;;;;;4993393;28;20742;-72
2021/08/23 00:48:33;;;;;;;11.27;10.27;;;18.40;99.90;;;;;;5009489;28;20562;-72
2021/08/23 00:51:01;;;;;;;11.00;9.90;;;18.30;99.90;;;;;;4998568;28;20417;-74
2021/08/23 00:53:28;;;;;;;13.27;12.17;;;18.40;99.90;;;;;;4998181;28;20421;-74
2021/08/23 00:55:56;;;;;;;14.23;12.83;;;18.30;99.90;;;;;;5010568;28;20769;-74
2021/08/23 00:58:23;;;;;;;12.23;11.03;;;18.30;99.90;;;;;;4989351;28;20472;-73
2021/08/23 01:01:04;;;;;;;13.13;11.93;;;18.10;99.90;;;;;;5007462;28;20437;-71
2021/08/23 01:03:45;;;;;;;12.37;11.20;;;18.10;99.90;;;;;;5007001;28;20794;-72
2021/08/23 01:06:13;;;;;;;13.40;12.13;;;18.00;99.90;;;;;;4993611;28;20500;-72
2021/08/23 01:08:41;;;;;;;12.87;11.57;;;18.00;99.90;;;;;;5011054;28;20402;-74
2021/08/23 01:11:10;;;;;;;13.70;12.40;;;18.10;99.90;;;;;;4998509;28;20823;-73
2021/08/23 01:13:43;;;;;;;13.70;12.30;;;18.00;99.90;;;;;;4994352;28;20420;-75
2021/08/23 01:16:10;;;;;;;12.77;11.63;;;18.30;99.90;;;;;;4997968;28;20411;-75
2021/08/23 01:18:37;;;;;;;12.67;11.37;;;18.40;99.90;;;;;;4987727;28;20458;-73
2021/08/23 01:21:07;;;;;;;13.73;12.43;;;18.50;99.90;;;;;;5006930;28;20577;-73
2021/08/23 01:23:36;;;;;;;14.40;12.70;;;18.40;99.90;;;;;;5002835;28;20465;-72
2021/08/23 01:26:04;;;;;;;13.67;11.27;;;18.20;99.90;;;;;;4991420;28;20472;-72
2021/08/23 01:29:02;;;;;;;18.17;12.90;;;18.10;99.90;;;;;;5005219;28;20416;-72
2021/08/23 01:31:40;;;;;;;11.93;10.70;;;18.10;99.90;;;;;;4986714;28;20426;-73
2021/08/23 01:34:08;;;;;;;12.83;11.63;;;18.20;99.90;;;;;;4995416;28;20459;-72
2021/08/23 01:36:36;;;;;;;14.37;13.07;;;18.10;99.90;;;;;;4993571;28;20638;-71
2021/08/23 01:39:03;;;;;;;13.37;12.17;;;18.10;99.90;;;;;;4978287;28;20437;-72
2021/08/23 01:41:30;;;;;;;13.20;11.30;;;18.20;99.90;;;;;;5001800;28;21080;-72
2021/08/23 01:43:57;;;;;;;11.73;10.73;;;18.30;99.90;;;;;;4996072;28;20457;-73
2021/08/23 01:46:32;;;;;;;15.60;12.57;;;18.30;99.90;;;;;;4997344;28;20451;-73
2021/08/23 01:49:00;;;;;;;12.73;11.40;;;18.30;99.90;;;;;;4983851;28;20743;-73
2021/08/23 01:51:27;;;;;;;15.13;11.50;;;18.20;99.90;;;;;;4992547;28;20454;-73
2021/08/23 01:53:54;;;;;;;14.07;12.67;;;18.40;99.90;;;;;;4994298;28;20446;-73
2021/08/23 01:56:25;;;;;;;14.03;12.53;;;18.50;99.90;;;;;;4984999;28;20422;-73
2021/08/23 01:58:53;;;;;;;15.57;13.00;;;18.40;99.90;;;;;;4996092;28;20442;-73
2021/08/23 02:01:20;;;;;;;13.27;12.07;;;18.10;99.90;;;;;;4996691;28;20464;-73
2021/08/23 02:03:48;;;;;;;13.10;11.80;;;18.20;99.90;;;;;;4998166;28;20749;-72
2021/08/23 02:06:16;;;;;;;14.17;12.77;;;18.30;99.90;;;;;;4997412;28;20563;-72
2021/08/23 02:08:44;;;;;;;13.47;12.17;;;18.20;99.90;;;;;;4995946;28;20435;-73
2021/08/23 02:11:11;;;;;;;14.43;13.03;;;18.10;99.90;;;;;;4997120;28;20417;-72
2021/08/23 02:13:38;;;;;;;15.83;14.23;;;18.00;99.90;;;;;;4997543;28;20508;-71
2021/08/23 02:16:05;;;;;;;14.87;13.23;;;17.90;99.90;;;;;;4997168;28;20449;-72
2021/08/23 02:18:32;;;;;;;14.23;13.00;;;18.00;99.90;;;;;;4996882;28;20469;-72
2021/08/23 02:20:59;;;;;;;14.53;13.13;;;18.00;99.90;;;;;;4997619;28;20780;-74
2021/08/23 02:23:26;;;;;;;14.97;13.43;;;18.00;99.90;;;;;;4993517;28;20462;-74
2021/08/23 02:25:56;;;;;;;14.00;12.80;;;18.10;99.90;;;;;;4977490;28;20487;-72
2021/08/23 02:28:24;;;;;;;13.47;12.07;;;18.20;99.90;;;;;;4981812;28;20422;-72
2021/08/23 02:30:51;;;;;;;13.50;12.30;;;18.20;99.90;;;;;;4995783;28;20464;-73
2021/08/23 02:33:18;;;;;;;18.50;14.43;;;18.20;99.90;;;;;;4999238;28;20462;-72
2021/08/23 02:35:45;;;;;;;13.87;12.47;;;18.20;99.90;;;;;;4996609;28;20445;-73
2021/08/23 02:38:12;;;;;;;14.20;12.87;;;18.30;99.90;;;;;;4996480;28;20752;-73
2021/08/23 02:40:39;;;;;;;12.60;11.40;;;18.30;99.90;;;;;;4991418;28;20419;-73
2021/08/23 02:43:06;;;;;;;13.80;12.40;;;18.30;99.90;;;;;;4996908;28;20442;-72
2021/08/23 02:45:33;;;;;;;13.60;12.50;;;18.50;99.90;;;;;;4995872;28;20437;-73
2021/08/23 02:48:01;;;;;;;13.57;12.40;;;18.40;99.90;;;;;;4988689;28;20442;-74
2021/08/23 02:50:28;;;;;;;18.10;12.33;;;18.30;99.90;;;;;;4999005;28;20549;-75
2021/08/23 02:52:55;;;;;;;14.07;12.60;;;18.30;99.90;;;;;;5011070;28;20494;-74
2021/08/23 02:55:22;;;;;;;16.13;13.57;;;18.40;99.90;;;;;;4996023;28;20776;-74
2021/08/23 02:57:49;;;;;;;14.90;13.47;;;18.40;99.90;;;;;;4993144;28;20741;-76
2021/08/23 03:00:17;;;;;;;13.40;12.10;;;18.50;99.90;;;;;;4992684;28;20410;-75
2021/08/23 03:02:44;;;;;;;14.83;13.53;;;18.60;99.90;;;;;;4992445;28;20759;-76
2021/08/23 03:05:11;;;;;;;15.37;13.87;;;18.40;99.90;;;;;;4994393;28;20413;-76
2021/08/23 03:07:38;;;;;;;16.13;14.50;;;18.30;99.90;;;;;;4995429;28;20480;-77
2021/08/23 03:10:06;;;;;;;14.63;13.13;;;18.40;99.90;;;;;;4995611;28;20480;-77
2021/08/23 03:12:33;;;;;;;18.80;15.30;;;18.60;99.90;;;;;;4996056;28;20414;-76
2021/08/23 03:15:00;;;;;;;15.77;14.17;;;18.60;99.90;;;;;;4996114;28;20457;-76
2021/08/23 03:17:27;;;;;;;15.00;13.53;;;18.40;99.90;;;;;;4997143;28;20712;-76
2021/08/23 03:19:54;;;;;;;19.97;17.67;;;18.30;99.90;;;;;;4996178;28;20440;-77
2021/08/23 03:22:21;;;;;;;15.63;14.20;;;18.50;99.90;;;;;;5010616;28;20448;-76
2021/08/23 03:24:48;;;;;;;17.37;13.17;;;18.40;99.90;;;;;;4997957;28;20417;-76
2021/08/23 03:27:15;;;;;;;19.43;16.40;;;18.50;99.90;;;;;;4996575;28;20460;-75
2021/08/23 03:29:42;;;;;;;13.57;12.17;;;18.70;99.90;;;;;;4997039;28;20461;-77
2021/08/23 03:32:09;;;;;;;15.23;13.63;;;18.60;99.90;;;;;;4992312;28;20491;-75
2021/08/23 03:34:36;;;;;;;17.03;15.23;;;18.30;99.90;;;;;;4994869;28;20494;-77
2021/08/23 03:37:03;;;;;;;14.83;13.53;;;18.30;99.90;;;;;;4994903;28;20462;-77
2021/08/23 03:39:30;;;;;;;14.80;13.30;;;18.40;99.90;;;;;;4998900;28;20416;-76
2021/08/23 03:41:57;;;;;;;13.93;12.70;;;18.40;99.90;;;;;;4994574;28;20809;-74
2021/08/23 03:44:25;;;;;;;16.80;14.83;;;18.40;99.90;;;;;;4997743;28;20466;-76
2021/08/23 03:46:52;;;;;;;17.53;13.50;;;18.70;99.90;;;;;;4999976;28;20442;-74
2021/08/23 03:49:20;;;;;;;16.50;13.53;;;18.70;99.90;;;;;;5018574;28;20755;-73
2021/08/23 03:51:47;;;;;;;12.80;11.63;;;18.60;99.90;;;;;;5019521;28;20504;-75
2021/08/23 03:54:15;;;;;;;18.97;12.60;;;18.40;99.90;;;;;;5002927;28;20439;-76
2021/08/23 03:56:42;;;;;;;14.50;12.20;;;18.50;99.90;;;;;;4986502;28;20489;-75
2021/08/23 03:59:13;;;;;;;15.90;14.40;;;18.80;99.90;;;;;;4999632;28;20460;-76
2021/08/23 04:01:44;;;;;;;13.77;12.63;;;18.80;99.90;;;;;;4998889;28;20421;-75
2021/08/23 04:04:11;;;;;;;14.53;13.20;;;19.10;99.90;;;;;;4994443;28;20439;-76
2021/08/23 04:06:44;;;;;;;17.97;14.53;;;19.20;99.90;;;;;;4992061;28;20694;-75
2021/08/23 04:09:15;;;;;;;15.17;13.77;;;19.40;99.90;;;;;;4991075;28;20518;-76
2021/08/23 04:11:42;;;;;;;14.00;12.70;;;19.50;99.90;;;;;;4997502;28;20766;-75
2021/08/23 04:14:09;;;;;;;14.90;13.30;;;19.30;99.90;;;;;;4988917;28;20509;-76
2021/08/23 04:16:36;;;;;;;13.43;12.23;;;19.40;99.90;;;;;;4992285;28;20449;-75
2021/08/23 04:19:03;;;;;;;15.90;14.40;;;19.20;99.90;;;;;;4987041;28;20581;-75
2021/08/23 04:21:30;;;;;;;16.07;14.47;;;19.10;99.90;;;;;;4984715;28;20469;-78
2021/08/23 04:23:57;;;;;;;15.37;13.77;;;19.20;99.90;;;;;;5029951;28;20625;-80
2021/08/23 04:26:24;;;;;;;16.10;14.53;;;19.40;99.90;;;;;;4997434;28;20464;-80
2021/08/23 04:28:51;;;;;;;14.80;12.90;;;19.50;99.90;;;;;;4997432;28;20455;-88
2021/08/23 04:31:18;;;;;;;14.07;12.67;;;19.60;99.90;;;;;;4997400;28;20715;-78
2021/08/23 04:33:46;;;;;;;16.10;14.53;;;19.70;99.90;;;;;;4994040;28;20449;-80
2021/08/23 04:36:13;;;;;;;14.77;13.27;;;19.70;99.90;;;;;;4997745;28;20588;-82
2021/08/23 04:38:41;;;;;;;13.90;12.50;;;19.80;99.90;;;;;;4994370;28;20507;-82
2021/08/23 04:41:08;;;;;;;13.97;12.77;;;19.70;99.90;;;;;;4997260;28;20465;-81
2021/08/23 04:43:35;;;;;;;16.20;14.60;;;19.50;99.90;;;;;;4997295;28;20480;-79
2021/08/23 04:46:03;;;;;;;15.03;13.50;;;19.50;99.90;;;;;;4997542;28;20522;-77
2021/08/23 04:48:31;;;;;;;16.30;14.70;;;19.40;99.90;;;;;;4993211;28;20411;-78
2021/08/23 04:50:58;;;;;;;15.53;13.57;;;19.40;99.90;;;;;;4989465;28;20438;-77
2021/08/23 04:53:25;;;;;;;13.07;11.87;;;19.30;99.90;;;;;;4984796;28;20577;-76
2021/08/23 04:55:52;;;;;;;15.73;14.30;;;18.90;99.90;;;;;;5009531;28;20804;-76
2021/08/23 04:58:21;;;;;;;16.13;14.40;;;18.70;99.90;;;;;;4995230;28;20586;-77
2021/08/23 05:00:48;;;;;;;14.50;13.10;;;18.70;99.90;;;;;;5001467;28;20417;-75
2021/08/23 05:03:16;;;;;;;14.80;12.43;;;18.50;99.90;;;;;;4999099;28;20612;-74
2021/08/23 05:05:43;;;;;;;14.07;12.30;;;18.40;99.90;;;;;;5000639;28;20726;-75
2021/08/23 05:08:10;;;;;;;12.17;11.07;;;18.40;99.90;;;;;;5005960;28;20417;-76
2021/08/23 05:10:37;;;;;;;13.40;12.13;;;18.60;99.90;;;;;;4998929;28;20422;-75
2021/08/23 05:13:04;;;;;;;12.73;11.33;;;18.70;99.90;;;;;;4997882;28;20416;-76
2021/08/23 05:15:31;;;;;;;11.47;10.40;;;18.60;99.90;;;;;;4997475;28;20660;-74
2021/08/23 05:17:58;;;;;;;11.67;9.80;;;18.50;99.90;;;;;;4994770;28;20412;-75
2021/08/23 05:20:25;;;;;;;11.93;10.83;;;18.40;99.90;;;;;;4995485;28;20515;-75
2021/08/23 05:22:53;;;;;;;11.60;10.60;;;18.30;99.90;;;;;;4999141;28;20482;-73
2021/08/23 05:25:20;;;;;;;11.13;10.07;;;18.10;99.90;;;;;;4998653;28;20541;-75
2021/08/23 05:27:47;;;;;;;9.87;8.97;;;18.10;99.90;;;;;;5001444;28;20418;-75
2021/08/23 05:30:14;;;;;;;10.70;8.97;;;18.10;99.90;;;;;;5003450;28;20938;-75
2021/08/23 05:32:41;;;;;;;10.33;9.30;;;18.20;99.90;;;;;;4996440;28;20528;-74
2021/08/23 05:35:09;;;;;;;10.13;8.93;;;18.30;99.90;;;;;;4994326;28;20455;-76
2021/08/23 05:37:36;;;;;;;10.73;9.80;;;18.30;99.90;;;;;;4994941;28;20421;-76
2021/08/23 05:40:04;;;;;;;10.20;9.20;;;18.30;99.90;;;;;;4996732;28;20421;-76
2021/08/23 05:42:31;;;;;;;11.80;10.33;;;18.20;99.90;;;;;;4986095;28;20417;-73
2021/08/23 05:44:58;;;;;;;11.83;10.60;;;18.20;99.90;;;;;;4997098;28;20485;-74
2021/08/23 05:47:25;;;;;;;12.60;11.50;;;18.20;99.90;;;;;;4997325;28;20480;-74
2021/08/23 05:49:52;;;;;;;10.43;9.40;;;18.10;99.90;;;;;;4991059;28;20437;-74
2021/08/23 05:52:19;;;;;;;11.33;10.23;;;18.00;99.90;;;;;;5017134;28;20416;-72
2021/08/23 05:54:46;;;;;;;12.13;10.80;;;17.90;99.90;;;;;;4993547;28;20421;-76
2021/08/23 05:57:14;;;;;;;11.13;10.00;;;17.90;99.90;;;;;;5003797;28;20457;-75
2021/08/23 05:59:41;;;;;;;12.10;10.73;;;17.80;99.90;;;;;;4983309;28;20421;-75
2021/08/23 06:02:08;;;;;;;11.97;10.77;;;17.70;99.90;;;;;;4996826;28;20501;-76
2021/08/23 06:04:35;;;;;;;12.10;10.83;;;17.80;99.90;;;;;;4996648;28;20436;-74
2021/08/23 06:07:05;;;;;;;15.03;11.37;;;17.70;99.90;;;;;;4997172;28;20842;-75
2021/08/23 06:09:34;;;;;;;11.27;10.10;;;17.70;99.90;;;;;;5010067;28;20483;-74
2021/08/23 06:12:02;;;;;;;12.30;10.67;;;17.70;99.90;;;;;;5003869;28;20435;-75
2021/08/23 06:14:29;;;;;;;11.50;10.40;;;17.70;99.90;;;;;;5012017;28;20943;-73
2021/08/23 06:16:56;;;;;;;13.87;12.23;;;17.80;99.90;;;;;;5003681;28;20461;-74
2021/08/23 06:19:23;;;;;;;13.43;11.57;;;17.70;99.90;;;;;;5028324;28;21055;-75
2021/08/23 06:21:50;;;;;;;13.43;12.03;;;17.90;99.90;;;;;;5000950;28;20771;-72
2021/08/23 06:24:17;;;;;;;11.63;10.43;;;17.80;99.90;;;;;;5007160;28;20725;-75
2021/08/23 06:26:44;;;;;;;12.77;10.03;;;17.80;99.90;;;;;;4984610;28;20520;-74
2021/08/23 06:29:11;;;;;;;12.90;11.43;;;17.80;99.90;;;;;;5003288;28;20443;-77
2021/08/23 06:31:39;;;;;;;12.83;11.50;;;17.80;99.90;;;;;;5014498;28;20509;-76
2021/08/23 06:34:07;;;;;;;14.40;12.00;;;17.80;99.90;;;;;;4991627;28;20775;-76
2021/08/23 06:36:35;;;;;;;13.77;11.60;;;17.80;99.90;;;;;;5010532;28;20531;-76
2021/08/23 06:39:03;;;;;;;15.53;13.03;;;18.00;99.90;;;;;;5005918;28;20504;-77
2021/08/23 06:41:30;;;;;;;14.90;13.00;;;18.20;99.90;;;;;;5006511;28;20440;-74
2021/08/23 06:43:57;;;;;;;16.93;11.43;;;18.30;99.90;;;;;;4988905;28;20663;-77
2021/08/23 06:46:24;;;;;;;12.33;11.13;;;18.40;99.90;;;;;;4995188;28;20763;-76
2021/08/23 06:48:51;;;;;;;14.37;11.30;;;18.50;99.90;;;;;;4983717;28;20517;-77
2021/08/23 06:51:24;;;;;;;13.67;11.90;;;18.60;99.90;;;;;;5009209;28;20508;-78
2021/08/23 06:53:51;;;;;;;12.60;11.30;;;18.80;99.90;;;;;;4985692;28;20432;-77
2021/08/23 06:56:18;;;;;;;12.57;11.20;;;19.00;99.90;;;;;;4993255;28;20523;-77
2021/08/23 06:58:45;;;;;;;10.90;9.73;;;19.00;99.90;;;;;;4986001;28;20782;-77
2021/08/23 07:01:12;;;;;;;12.10;10.80;;;18.90;99.90;;;;;;4991754;28;20682;-77
2021/08/23 07:03:40;;;;;;;13.00;10.00;;;19.00;99.90;;;;;;5004000;28;20448;-77
2021/08/23 07:06:07;;;;;;;14.13;11.83;;;18.90;99.90;;;;;;5000780;28;20475;-78
2021/08/23 07:08:44;;;;;;;13.70;12.30;;;19.00;99.90;;;;;;4994856;28;20434;-77
2021/08/23 07:11:12;;;;;;;15.00;11.40;;;19.20;99.90;;;;;;4995666;28;20436;-77
2021/08/23 07:13:40;;;;;;;17.73;13.00;;;19.30;99.90;;;;;;5016155;28;20409;-77
2021/08/23 07:16:07;;;;;;;12.80;11.47;;;19.40;99.90;;;;;;5019962;28;20456;-77
2021/08/23 07:18:34;;;;;;;11.30;10.23;;;19.70;99.90;;;;;;4987396;28;20484;-77
2021/08/23 07:21:02;;;;;;;11.20;9.37;;;19.80;99.90;;;;;;5009891;28;20603;-77
2021/08/23 07:23:29;;;;;;;9.97;8.60;;;20.00;99.90;;;;;;5002086;28;20414;-77
2021/08/23 07:25:57;;;;;;;8.80;7.90;;;20.30;99.90;;;;;;5000300;28;20417;-76
2021/08/23 07:28:26;;;;;;;10.47;8.97;;;20.80;99.90;;;;;;4999590;28;20464;-76
2021/08/23 07:30:54;;;;;;;8.33;7.23;;;21.50;99.90;;;;;;4999819;28;20620;-76
2021/08/23 07:33:21;;;;;;;7.43;6.70;;;21.80;99.90;;;;;;4994963;28;20559;-76
2021/08/23 07:35:48;;;;;;;8.50;7.70;;;22.20;99.90;;;;;;4997396;28;20450;-77
2021/08/23 07:38:15;;;;;;;9.37;6.80;;;22.40;99.90;;;;;;4999429;28;20434;-75
2021/08/23 07:40:43;;;;;;;8.50;7.70;;;21.70;99.90;;;;;;4999621;28;20440;-77
2021/08/23 07:43:10;;;;;;;6.50;5.90;;;21.50;99.90;;;;;;4997837;28;20447;-77
2021/08/23 07:45:38;;;;;;;7.37;6.67;;;21.50;99.90;;;;;;4997018;28;20411;-77
2021/08/23 07:48:06;;;;;;;6.17;5.57;;;21.70;99.90;;;;;;4994006;28;20413;-76
2021/08/23 07:50:35;;;;;;;6.97;6.33;;;22.30;99.90;;;;;;5009009;28;20446;-76
2021/08/23 07:53:04;;;;;;;6.30;5.80;;;22.70;99.90;;;;;;5006561;28;20458;-77
2021/08/23 07:55:32;;;;;;;5.40;4.30;;;22.80;99.90;;;;;;5008332;28;21076;-77
2021/08/23 07:57:59;;;;;;;6.00;4.70;;;22.60;99.90;;;;;;5007988;28;20444;-76
2021/08/23 08:00:31;;;;;;;4.83;4.30;;;22.60;99.90;;;;;;5004827;28;21108;-75
2021/08/23 08:02:59;;;;;;;5.97;5.40;;;22.60;99.90;;;;;;5005117;28;20446;-75
2021/08/23 08:05:26;;;;;;;5.27;4.87;;;22.60;99.90;;;;;;5005911;28;20419;-76
2021/08/23 08:07:53;;;;;;;6.70;4.13;;;22.70;99.90;;;;;;5010152;28;20545;-76
2021/08/23 08:10:21;;;;;;;4.33;3.53;;;23.10;99.90;;;;;;5005235;28;20409;-76
2021/08/23 08:12:48;;;;;;;5.20;3.73;;;23.40;99.90;;;;;;5001668;28;20478;-76
2021/08/23 08:15:15;;;;;;;4.57;4.27;;;23.40;99.90;;;;;;5001259;28;20585;-75
2021/08/23 08:17:42;;;;;;;3.70;3.40;;;23.30;99.90;;;;;;4981169;28;20462;-75
2021/08/23 08:20:11;;;;;;;5.00;4.60;;;23.40;99.90;;;;;;4993157;28;20450;-76
2021/08/23 08:22:38;;;;;;;3.90;3.60;;;22.90;99.90;;;;;;4982297;28;20495;-75
2021/08/23 08:25:06;;;;;;;3.90;3.60;;;22.60;99.90;;;;;;4982637;28;20488;-76
2021/08/23 08:27:35;;;;;;;3.53;3.27;;;22.80;99.90;;;;;;4980705;28;20421;-75
2021/08/23 08:30:07;;;;;;;3.30;3.00;;;23.20;99.90;;;;;;4977975;28;20432;-75
2021/08/23 08:32:34;;;;;;;2.70;2.50;;;23.80;99.90;;;;;;4990019;28;20422;-77
2021/08/23 08:35:06;;;;;;;3.40;3.10;;;24.20;99.90;;;;;;4996667;28;20431;-83
2021/08/23 08:37:33;;;;;;;3.10;2.90;;;25.60;99.90;;;;;;4998196;28;20667;-75
2021/08/23 08:40:01;;;;;;;3.27;3.07;;;26.90;99.90;;;;;;4998004;28;20466;-74
2021/08/23 08:42:28;;;;;;;3.60;3.30;;;27.30;99.90;;;;;;4996185;28;20435;-74
2021/08/23 08:44:55;;;;;;;3.13;2.93;;;28.50;99.90;;;;;;4998541;28;20518;-77
2021/08/23 08:47:23;;;;;;;3.43;3.13;;;29.70;99.90;;;;;;4998219;28;20449;-74
2021/08/23 08:49:52;;;;;;;3.63;3.43;;;29.80;99.90;;;;;;4991593;28;20471;-75
2021/08/23 08:52:20;;;;;;;3.00;2.90;;;28.40;99.90;;;;;;5005655;28;20436;-76
2021/08/23 08:54:48;;;;;;;3.10;2.90;;;27.40;99.90;;;;;;5020465;28;20431;-74
2021/08/23 08:57:14;;;;;;;3.37;3.17;;;26.50;99.90;;;;;;5005439;28;20609;-75
2021/08/23 08:59:42;;;;;;;3.33;3.10;;;26.30;99.90;;;;;;5005340;28;20529;-75
2021/08/23 09:02:09;;;;;;;3.20;3.00;;;25.80;99.90;;;;;;4996372;28;20439;-77
2021/08/23 09:04:38;;;;;;;3.43;3.13;;;25.60;99.90;;;;;;5003224;28;20411;-74
2021/08/23 09:07:08;;;;;;;3.50;3.30;;;25.50;99.90;;;;;;5000197;28;20520;-77
2021/08/23 09:09:36;;;;;;;4.13;3.33;;;25.20;99.90;;;;;;4999710;28;20497;-77
2021/08/23 09:12:05;;;;;;;3.27;3.07;;;24.70;99.90;;;;;;5000031;28;20633;-76
2021/08/23 09:14:36;;;;;;;3.20;3.00;;;24.40;99.90;;;;;;4995082;28;20502;-79
2021/08/23 09:17:08;;;;;;;3.27;3.07;;;24.30;99.90;;;;;;5031346;28;20453;-76
2021/08/23 09:19:36;;;;;;;3.30;3.00;;;24.60;99.90;;;;;;5031648;28;20432;-77
2021/08/23 09:22:18;;;;;;;3.77;3.47;;;24.20;99.90;;;;;;4998640;28;20580;-79
2021/08/23 09:24:45;;;;;;;3.43;3.23;;;24.10;99.90;;;;;;4991565;28;20482;-79
2021/08/23 09:27:14;;;;;;;3.43;2.43;;;24.10;99.90;;;;;;4986404;28;20801;-76
2021/08/23 09:30:01;;;;;;;3.87;3.43;;;24.60;99.90;;;;;;5000513;28;20508;-77
2021/08/23 09:32:31;;;;;;;3.43;3.23;;;25.40;99.90;;;;;;4995365;28;20640;-76
2021/08/23 09:34:59;;;;;;;5.30;2.70;;;26.00;99.90;;;;;;4995734;28;20447;-76
2021/08/23 09:37:32;;;;;;;3.17;2.97;;;26.00;99.90;;;;;;4985209;28;20475;-75
2021/08/23 09:40:14;;;;;;;2.87;2.67;;;25.80;99.90;;;;;;4996577;28;20440;-75
2021/08/23 09:42:41;;;;;;;2.97;2.77;;;26.10;99.90;;;;;;4996254;28;20821;-74
2021/08/23 09:45:16;;;;;;;3.90;3.70;;;26.20;99.90;;;;;;4996939;28;20493;-75
2021/08/23 09:47:43;;;;;;;3.30;3.10;;;26.80;99.90;;;;;;4983231;28;20421;-73
2021/08/23 09:50:15;;;;;;;3.10;2.90;;;27.40;99.90;;;;;;5001681;28;20498;-76
2021/08/23 09:52:43;;;;;;;3.33;3.13;;;27.60;99.90;;;;;;4997666;28;20453;-76
2021/08/23 09:55:11;;;;;;;2.87;2.67;;;27.00;99.90;;;;;;5029334;28;20459;-71
2021/08/23 09:57:41;;;;;;;3.63;3.33;;;26.50;99.90;;;;;;4996219;28;20483;-78
2021/08/23 10:00:13;;;;;;;3.00;2.90;;;26.60;99.90;;;;;;4985085;28;20413;-73
2021/08/23 10:02:48;;;;;;;3.70;3.40;;;26.50;99.90;;;;;;5009589;28;20844;-73
2021/08/23 10:05:18;;;;;;;3.90;3.63;;;26.70;99.90;;;;;;5002981;28;20442;-75
2021/08/23 10:07:46;;;;;;;3.60;3.33;;;27.10;99.90;;;;;;4999524;28;20468;-75
2021/08/23 10:10:14;;;;;;;3.80;3.60;;;27.20;99.90;;;;;;4995871;28;20511;-76
2021/08/23 10:12:41;;;;;;;4.63;3.73;;;27.30;99.90;;;;;;4996843;28;20451;-76
2021/08/23 10:15:09;;;;;;;3.50;3.30;;;27.60;99.90;;;;;;4994588;28;20438;-77
2021/08/23 10:17:37;;;;;;;5.10;3.77;;;27.30;99.90;;;;;;4997258;28;20478;-76
2021/08/23 10:20:07;;;;;;;4.60;4.17;;;27.30;99.90;;;;;;5001550;28;20437;-76
2021/08/23 10:22:36;;;;;;;4.03;3.73;;;27.60;99.90;;;;;;5046347;28;20436;-77
2021/08/23 10:25:05;;;;;;;4.30;4.00;;;27.40;99.90;;;;;;4988456;28;20755;-75
2021/08/23 10:27:34;;;;;;;4.77;4.47;;;27.30;99.90;;;;;;4997228;28;20487;-75
2021/08/23 10:30:01;;;;;;;4.03;3.83;;;27.10;99.90;;;;;;4997191;28;20498;-75
2021/08/23 10:32:40;;;;;;;4.70;4.30;;;27.00;99.90;;;;;;5004108;28;20981;-75
2021/08/23 10:35:26;;;;;;;5.70;5.30;;;27.30;99.90;;;;;;4997015;28;20438;-74
2021/08/23 10:37:54;;;;;;;4.57;4.27;;;27.40;99.90;;;;;;4996572;28;20537;-75
2021/08/23 10:40:33;;;;;;;4.07;3.87;;;27.50;99.90;;;;;;4993637;28;20436;-78
2021/08/23 10:43:12;;;;;;;4.27;3.97;;;27.30;99.90;;;;;;4995891;28;20445;-74
2021/08/23 10:45:40;;;;;;;4.20;4.00;;;26.80;99.90;;;;;;5007806;28;20427;-75
2021/08/23 10:48:16;;;;;;;4.13;3.93;;;26.10;99.90;;;;;;4990389;28;20436;-79
2021/08/23 10:50:43;;;;;;;4.97;4.47;;;25.60;99.90;;;;;;4990845;28;20443;-76
2021/08/23 10:53:13;;;;;;;5.47;5.07;;;25.20;99.90;;;;;;4995797;28;20466;-76
2021/08/23 10:55:41;;;;;;;4.50;4.20;;;25.00;99.90;;;;;;4996726;28;20477;-76
2021/08/23 10:58:09;;;;;;;5.80;4.13;;;25.20;99.90;;;;;;5014075;28;20471;-76
2021/08/23 11:00:42;;;;;;;4.40;4.10;;;25.00;99.90;;;;;;5007634;28;20762;-76
2021/08/23 11:03:10;;;;;;;4.07;3.77;;;25.00;99.90;;;;;;4996936;28;20479;-76
2021/08/23 11:05:38;;;;;;;4.17;3.87;;;25.30;99.90;;;;;;4995661;28;20443;-77
2021/08/23 11:08:11;;;;;;;4.10;3.80;;;25.30;99.90;;;;;;4982468;28;20463;-76
2021/08/23 11:10:40;;;;;;;4.67;4.30;;;25.20;99.90;;;;;;4995292;28;20439;-76
2021/08/23 11:13:11;;;;;;;4.40;4.10;;;25.40;99.90;;;;;;4995679;28;20964;-77
2021/08/23 11:15:38;;;;;;;5.10;4.77;;;25.50;99.90;;;;;;4996357;28;20433;-78
2021/08/23 11:18:16;;;;;;;4.83;4.50;;;25.40;99.90;;;;;;4996305;28;21023;-76
2021/08/23 11:20:52;;;;;;;9.43;6.07;;;25.40;99.90;;;;;;5007691;28;20431;-76
2021/08/23 11:23:26;;;;;;;7.60;4.93;;;25.20;99.90;;;;;;4998925;28;20467;-75
2021/08/23 11:25:57;;;;;;;5.10;4.70;;;24.90;99.90;;;;;;4998700;28;20439;-76
2021/08/23 11:28:27;;;;;;;5.17;4.70;;;24.50;99.90;;;;;;5005846;28;20703;-74
2021/08/23 11:30:58;;;;;;;4.90;4.60;;;24.10;99.90;;;;;;4987502;28;20479;-76
2021/08/23 11:33:34;;;;;;;4.77;4.47;;;23.80;99.90;;;;;;4990268;28;20463;-76
2021/08/23 11:36:04;;;;;;;4.50;4.10;;;23.90;99.90;;;;;;4997084;28;20424;-76
2021/08/23 11:38:36;;;;;;;4.03;3.83;;;23.90;99.90;;;;;;4995969;28;20478;-76
2021/08/23 11:41:05;;;;;;;4.40;4.17;;;24.40;99.90;;;;;;4997413;28;20467;-75
2021/08/23 11:43:33;;;;;;;4.53;4.23;;;24.90;99.90;;;;;;4996749;28;20777;-74
2021/08/23 11:46:01;;;;;;;4.50;4.20;;;25.40;99.90;;;;;;4994954;28;20511;-76
2021/08/23 11:48:28;;;;;;;4.50;4.20;;;25.40;99.90;;;;;;4987955;28;20445;-77
2021/08/23 11:50:56;;;;;;;4.37;4.03;;;25.40;99.90;;;;;;5021421;28;20451;-74
2021/08/23 11:53:24;;;;;;;4.43;4.03;;;25.70;99.90;;;;;;5015988;28;20434;-73
2021/08/23 11:55:52;;;;;;;4.83;4.40;;;25.70;99.90;;;;;;5002656;28;20479;-75
2021/08/23 11:58:20;;;;;;;4.20;4.00;;;25.50;99.90;;;;;;4983099;28;20654;-74
2021/08/23 12:01:06;;;;;;;5.80;5.23;;;25.70;99.90;;;;;;5011761;28;20409;-73
2021/08/23 12:03:33;;;;;;;4.90;4.50;;;26.00;99.90;;;;;;5000238;28;20649;-74
2021/08/23 12:06:04;;;;;;;6.30;4.53;;;26.30;99.90;;;;;;4999538;28;20501;-73
2021/08/23 12:08:35;;;;;;;5.10;4.80;;;26.20;99.90;;;;;;5005743;28;20983;-73
2021/08/23 12:11:08;;;;;;;4.60;4.30;;;26.30;99.90;;;;;;5007580;28;20662;-75
2021/08/23 12:13:38;;;;;;;6.10;5.70;;;26.60;99.90;;;;;;4997837;28;20410;-73
2021/08/23 12:16:08;;;;;;;6.97;6.30;;;26.60;99.90;;;;;;4987495;28;20484;-75
2021/08/23 12:18:46;;;;;;;6.70;6.23;;;26.30;99.90;;;;;;4997518;28;20475;-73
2021/08/23 12:21:25;;;;;;;5.07;4.77;;;26.00;99.90;;;;;;4999166;28;20769;-72
2021/08/23 12:23:52;;;;;;;5.43;5.10;;;25.50;99.90;;;;;;4992640;28;20789;-74
2021/08/23 12:26:59;;;;;;;6.60;5.93;;;24.90;99.90;;;;;;5006330;28;20439;-75
2021/08/23 12:29:34;;;;;;;4.30;4.10;;;25.10;99.90;;;;;;4997634;28;20451;-74
2021/08/23 12:32:07;;;;;;;4.70;4.40;;;25.20;99.90;;;;;;4996343;28;20428;-74
2021/08/23 12:34:44;;;;;;;4.97;4.53;;;25.20;99.90;;;;;;4999055;28;20434;-74
2021/08/23 12:37:11;;;;;;;4.80;4.40;;;25.70;99.90;;;;;;4996847;28;20475;-75
2021/08/23 12:39:39;;;;;;;4.80;4.40;;;25.70;99.90;;;;;;4997865;28;20437;-73
2021/08/23 12:42:11;;;;;;;5.37;4.90;;;25.90;99.90;;;;;;4998655;28;20447;-74
2021/08/23 12:44:39;;;;;;;5.37;4.87;;;25.70;99.90;;;;;;4997290;28;20505;-73